Impacts TAF Board
For situational awareness. Not to be used for flight planning purposes.
IDs:

KECP - Panama City/NW Flori, FL, US

Issued at 1722 UTC 21 May 2022
Updated at 2247 UTC 21 May 2022
Potential Impact None Slight Moderate High
Time2153Z 21/23Z 22/00Z 22/01Z 22/02Z 22/03Z 22/04Z 22/05Z 22/06Z 22/07Z 22/08Z 22/09Z 22/10Z 22/11Z>>
Type OBS PRVL PRVL PRVL PRVL PRVL PRVL PRVL PRVL PRVL PRVL PRVL PRVL PRVL
VIS 10 >6 >6 >6 >6 >6 >6 >6 >6 >6 >6 >6 >6 >6
CIG -- 50 -- -- -- -- -- -- -- -- -- -- -- --
Cover FEW BKN SCT SCT SCT SCT SCT SCT SCT SCT SCT SCT SCT SCT
FltCat VFR VFR VFR VFR VFR VFR VFR VFR VFR VFR VFR VFR VFR VFR
WX -- -- -- -- -- -- -- -- -- -- -- -- -- --
WDir 160 180 150 150 150 150 150 150 150 150 150 150 150 150
WSpd 9 12 6 6 6 6 6 6 6 6 6 6 6 6
WGst -- -- -- -- -- -- -- -- -- -- -- -- -- --
WSHgt -- -- -- -- -- -- -- -- -- -- -- -- -- --
WSDir -- -- -- -- -- -- -- -- -- -- -- -- -- --
WSSpd -- -- -- -- -- -- -- -- -- -- -- -- -- --
R16/34
XWnd -0 -4 1 1 1 1 1 1 1 1 1 1 1 1
Raw TAF
KECP 211722Z 2118/2218 15012KT P6SM VCTS BKN020CB
  FM212000 18012KT P6SM SCT020 BKN050
  FM220000 15006KT P6SM SCT050
  FM221300 17010KT P6SM VCTS SCT050CB


Raw METAR
KECP 212153Z 16009KT 10SM FEW031 27/19 A3011 RMK AO1 SLP205 T02720194
KECP 212053Z 14012KT 10SM CLR 27/18 A3010 RMK AO1 SLP202 T02720183 58016
KECP 211953Z 14008KT 10SM CLR 28/19 A3011 RMK AO1 SLP207 T02780194

METAR Board
Radar Display
Forecast Discussion
For situational awareness. Not to be used for flight planning purposes.